createdAt,value
2018-12-31T00:01:13.486Z,12.05
2018-12-31T00:03:41.922Z,12.40
2018-12-31T00:06:10.346Z,10.00
2018-12-31T00:08:39.112Z,10.85
2018-12-31T00:11:07.577Z,10.28
2018-12-31T00:13:36.053Z,11.35
2018-12-31T00:16:04.492Z,12.23
2018-12-31T00:18:32.913Z,10.50
2018-12-31T00:21:01.532Z,10.30
2018-12-31T00:23:29.964Z,11.50
2018-12-31T00:25:58.642Z,10.50
2018-12-31T00:28:27.096Z,11.95
2018-12-31T00:30:55.517Z,12.55
2018-12-31T00:33:24.217Z,12.03
2018-12-31T00:35:52.693Z,11.88
2018-12-31T00:38:21.162Z,10.55
2018-12-31T00:40:49.868Z,10.70
2018-12-31T00:43:18.288Z,11.15
2018-12-31T00:45:46.729Z,12.78
2018-12-31T00:48:15.418Z,11.85
2018-12-31T00:50:44.094Z,11.75
2018-12-31T00:53:12.544Z,11.93
2018-12-31T00:55:41.314Z,12.37
2018-12-31T00:58:10.014Z,11.30
2018-12-31T01:00:38.454Z,11.63
2018-12-31T01:03:07.117Z,13.10
2018-12-31T01:05:35.630Z,12.37
2018-12-31T01:08:04.051Z,12.85
2018-12-31T01:10:32.553Z,12.60
2018-12-31T01:13:00.989Z,13.28
2018-12-31T01:15:29.693Z,11.85
2018-12-31T01:17:58.395Z,13.28
2018-12-31T01:20:26.816Z,11.68
2018-12-31T01:22:55.249Z,12.33
2018-12-31T01:25:23.963Z,12.20
2018-12-31T01:27:52.385Z,13.35
2018-12-31T01:30:20.826Z,13.58
2018-12-31T01:32:49.241Z,14.50
2018-12-31T01:35:17.960Z,13.08
2018-12-31T01:37:46.458Z,11.80
2018-12-31T01:40:14.889Z,13.18
2018-12-31T01:42:43.325Z,11.10
2018-12-31T01:45:12.009Z,12.33
2018-12-31T01:47:40.706Z,13.13
2018-12-31T01:50:09.145Z,12.88
2018-12-31T01:52:37.574Z,12.13
2018-12-31T01:55:06.018Z,11.45
2018-12-31T01:57:34.437Z,13.30
2018-12-31T02:00:02.874Z,11.75
2018-12-31T02:02:31.577Z,11.68
2018-12-31T02:05:00.250Z,12.45
2018-12-31T02:07:28.690Z,13.00
2018-12-31T02:09:57.490Z,11.50
2018-12-31T02:12:25.910Z,12.90
2018-12-31T02:14:55.173Z,10.38
2018-12-31T02:17:23.845Z,11.43
2018-12-31T02:19:52.282Z,12.55
2018-12-31T02:22:21.100Z,12.13
2018-12-31T02:24:49.605Z,13.95
2018-12-31T02:27:18.285Z,13.40
2018-12-31T02:29:46.710Z,11.30
2018-12-31T02:32:15.150Z,12.82
2018-12-31T02:34:43.643Z,13.08
2018-12-31T02:37:12.517Z,13.32
2018-12-31T02:39:40.958Z,13.20
2018-12-31T02:42:09.373Z,12.55
2018-12-31T02:44:38.056Z,13.50
2018-12-31T02:47:06.473Z,12.07
2018-12-31T02:49:35.186Z,12.82
2018-12-31T02:52:03.883Z,11.95
2018-12-31T02:54:32.302Z,11.65
2018-12-31T02:57:00.741Z,13.13
2018-12-31T02:59:29.162Z,11.28
2018-12-31T03:01:57.913Z,12.85
2018-12-31T03:04:26.394Z,13.13
2018-12-31T03:06:54.817Z,13.80
2018-12-31T03:09:23.529Z,13.18
2018-12-31T03:11:51.954Z,11.80
2018-12-31T03:14:20.384Z,12.25
2018-12-31T03:16:48.830Z,13.15
2018-12-31T03:19:17.513Z,11.85
2018-12-31T03:21:46.274Z,12.23
2018-12-31T03:24:14.703Z,12.37
2018-12-31T03:26:43.411Z,13.32
2018-12-31T03:29:12.129Z,13.03
2018-12-31T03:31:40.605Z,13.08
2018-12-31T03:34:09.389Z,12.45
2018-12-31T03:36:37.813Z,11.95
2018-12-31T03:39:07.342Z,12.10
2018-12-31T03:41:36.191Z,13.15
2018-12-31T03:44:04.961Z,11.50
2018-12-31T03:46:33.457Z,11.12
2018-12-31T03:49:02.154Z,12.10
2018-12-31T03:51:30.661Z,12.28
2018-12-31T03:53:59.345Z,12.23
2018-12-31T03:56:27.783Z,11.05
2018-12-31T03:58:56.219Z,11.97
2018-12-31T04:01:24.642Z,11.90
2018-12-31T04:03:53.341Z,12.05
2018-12-31T04:06:21.757Z,11.48
2018-12-31T04:08:50.199Z,12.50
2018-12-31T04:11:18.889Z,11.28
2018-12-31T04:13:47.554Z,12.03
2018-12-31T04:16:16.265Z,12.10
2018-12-31T04:18:44.697Z,12.63
2018-12-31T04:21:13.193Z,11.60
2018-12-31T04:23:41.883Z,12.47
2018-12-31T04:26:10.309Z,11.85
2018-12-31T04:28:38.999Z,12.28
2018-12-31T04:31:08.685Z,11.35
2018-12-31T04:33:37.122Z,11.75
2018-12-31T04:36:05.809Z,13.22
2018-12-31T04:38:34.238Z,12.55
2018-12-31T04:41:02.681Z,12.43
2018-12-31T04:43:31.362Z,11.78
2018-12-31T04:46:00.069Z,12.40
2018-12-31T04:48:28.758Z,11.60
2018-12-31T04:50:57.181Z,10.53
2018-12-31T04:53:25.658Z,11.38
2018-12-31T04:55:54.330Z,10.70
2018-12-31T04:58:23.448Z,10.63
2018-12-31T05:00:52.795Z,10.45
2018-12-31T05:03:21.470Z,12.60
2018-12-31T05:05:50.178Z,12.05
2018-12-31T05:08:18.602Z,10.50
2018-12-31T05:10:47.037Z,12.18
2018-12-31T05:13:15.489Z,12.15
2018-12-31T05:15:43.909Z,11.65
2018-12-31T05:18:12.351Z,12.07
2018-12-31T05:20:41.022Z,10.45
2018-12-31T05:23:09.723Z,10.70
2018-12-31T05:25:38.157Z,10.63
2018-12-31T05:28:06.682Z,10.78
2018-12-31T05:30:35.117Z,9.45
2018-12-31T05:33:03.538Z,9.80
2018-12-31T05:35:32.246Z,11.08
2018-12-31T05:38:00.689Z,11.95
2018-12-31T05:40:29.362Z,10.72
2018-12-31T05:42:57.797Z,10.93
2018-12-31T05:45:26.472Z,12.15
2018-12-31T05:47:55.155Z,10.18
2018-12-31T05:50:23.661Z,10.75
2018-12-31T05:52:52.085Z,11.33
2018-12-31T05:55:20.761Z,10.10
2018-12-31T05:57:49.453Z,11.38
2018-12-31T06:00:17.879Z,9.40
2018-12-31T06:02:46.822Z,10.32
2018-12-31T06:05:15.262Z,9.48
2018-12-31T06:07:43.685Z,9.85
2018-12-31T06:10:12.105Z,10.25
2018-12-31T06:12:40.541Z,10.18
2018-12-31T06:15:08.965Z,9.38
2018-12-31T06:17:37.393Z,11.50
2018-12-31T06:20:05.966Z,9.73
2018-12-31T06:22:34.389Z,11.75
2018-12-31T06:25:03.067Z,9.63
2018-12-31T06:27:31.492Z,9.33
2018-12-31T06:30:00.254Z,9.10
2018-12-31T06:32:30.054Z,9.33
2018-12-31T06:34:58.494Z,11.40
2018-12-31T06:37:26.917Z,11.48
2018-12-31T06:39:55.341Z,10.05
2018-12-31T06:42:23.847Z,9.98
2018-12-31T06:44:52.531Z,10.08
2018-12-31T06:47:21.206Z,9.35
2018-12-31T06:49:49.886Z,9.55
2018-12-31T06:52:18.310Z,8.55
2018-12-31T06:54:47.052Z,8.80
2018-12-31T06:57:15.490Z,9.65
2018-12-31T06:59:43.906Z,8.70
2018-12-31T07:02:12.322Z,9.20
2018-12-31T07:04:40.761Z,8.88
2018-12-31T07:07:09.194Z,8.78
2018-12-31T07:09:37.862Z,8.35
2018-12-31T07:12:06.305Z,8.43
2018-12-31T07:14:34.992Z,8.75
2018-12-31T07:17:03.458Z,8.43
2018-12-31T07:19:31.950Z,7.75
2018-12-31T07:22:00.389Z,7.05
2018-12-31T07:24:29.125Z,9.18
2018-12-31T07:26:57.562Z,7.62
2018-12-31T07:29:26.255Z,8.35
2018-12-31T07:31:54.674Z,7.85
2018-12-31T07:34:23.365Z,7.37
2018-12-31T07:36:51.801Z,7.37
2018-12-31T07:39:20.222Z,7.78
2018-12-31T07:41:48.655Z,8.45
2018-12-31T07:44:17.334Z,6.40
2018-12-31T07:46:46.013Z,7.40
2018-12-31T07:49:14.457Z,6.97
2018-12-31T07:51:43.142Z,6.85
2018-12-31T07:54:11.557Z,7.25
2018-12-31T07:56:40.237Z,7.50
2018-12-31T07:59:08.669Z,6.35
2018-12-31T08:01:37.082Z,6.60
2018-12-31T08:04:05.765Z,7.17
2018-12-31T08:06:34.197Z,7.20
2018-12-31T08:09:02.861Z,6.33
2018-12-31T08:11:31.297Z,7.53
2018-12-31T08:14:00.002Z,7.42
2018-12-31T08:16:28.674Z,7.75
2018-12-31T08:18:57.290Z,7.78
2018-12-31T08:21:25.993Z,7.35
2018-12-31T08:23:54.410Z,6.50
2018-12-31T08:26:22.843Z,7.25
2018-12-31T08:28:51.273Z,6.97
2018-12-31T08:31:19.962Z,6.50
2018-12-31T08:33:48.641Z,7.15
2018-12-31T08:36:17.321Z,7.12
2018-12-31T08:38:45.741Z,6.53
2018-12-31T08:41:14.170Z,6.20
2018-12-31T08:43:42.586Z,5.87
2018-12-31T08:46:11.097Z,6.10
2018-12-31T08:48:39.529Z,6.92
2018-12-31T08:51:07.953Z,5.72
2018-12-31T08:53:36.678Z,6.42
2018-12-31T08:56:05.092Z,5.95
2018-12-31T08:58:33.526Z,5.70
2018-12-31T09:01:02.022Z,5.80
2018-12-31T09:03:30.710Z,6.10
2018-12-31T09:05:59.141Z,5.28
2018-12-31T09:08:27.574Z,6.87
2018-12-31T09:10:55.989Z,5.20
2018-12-31T09:13:24.674Z,6.05
2018-12-31T09:15:53.094Z,5.65
2018-12-31T09:18:21.773Z,6.47
2018-12-31T09:20:50.261Z,5.60
2018-12-31T09:23:18.690Z,5.28
2018-12-31T09:25:47.382Z,6.15
2018-12-31T09:28:16.050Z,5.17
2018-12-31T09:30:44.483Z,4.75
2018-12-31T09:33:13.102Z,5.25
2018-12-31T09:35:41.785Z,4.90
2018-12-31T09:38:10.221Z,5.40
2018-12-31T09:40:38.885Z,5.58
2018-12-31T09:43:07.318Z,4.83
2018-12-31T09:45:35.737Z,5.12
2018-12-31T09:48:04.175Z,4.37
2018-12-31T09:50:32.858Z,5.40
2018-12-31T09:53:01.269Z,5.12
2018-12-31T09:55:29.701Z,4.95
2018-12-31T09:57:58.960Z,5.10
2018-12-31T10:00:27.650Z,4.90
2018-12-31T10:02:56.082Z,4.45
2018-12-31T10:05:24.498Z,4.22
2018-12-31T10:07:53.181Z,4.60
2018-12-31T10:10:21.615Z,4.90
2018-12-31T10:12:50.292Z,5.00
2018-12-31T10:15:18.721Z,5.53
2018-12-31T10:17:47.407Z,5.28
2018-12-31T10:20:15.832Z,5.22
2018-12-31T10:22:44.498Z,5.58
2018-12-31T10:25:12.933Z,6.30
2018-12-31T10:27:41.371Z,4.67
2018-12-31T10:30:09.787Z,5.42
2018-12-31T10:32:38.209Z,5.35
2018-12-31T10:35:06.905Z,5.10
2018-12-31T10:37:35.342Z,5.05
2018-12-31T10:40:05.089Z,5.50
2018-12-31T10:42:33.753Z,5.45
2018-12-31T10:45:02.430Z,5.17
2018-12-31T10:47:30.914Z,4.95
2018-12-31T10:49:59.618Z,4.90
2018-12-31T10:52:28.282Z,5.53
2018-12-31T10:54:56.982Z,6.03
2018-12-31T10:57:25.409Z,6.03
2018-12-31T10:59:53.833Z,5.72
2018-12-31T11:02:23.370Z,5.90
2018-12-31T11:04:52.085Z,5.12
2018-12-31T11:07:20.757Z,5.35
2018-12-31T11:09:49.189Z,5.72
2018-12-31T11:12:17.862Z,6.78
2018-12-31T11:14:46.294Z,4.92
2018-12-31T11:17:14.961Z,5.92
2018-12-31T11:19:43.389Z,5.90
2018-12-31T11:22:11.802Z,6.08
2018-12-31T11:24:40.477Z,5.87
2018-12-31T11:27:08.909Z,5.12
2018-12-31T11:29:37.325Z,5.45
2018-12-31T11:32:05.765Z,5.47
2018-12-31T11:34:34.431Z,5.35
2018-12-31T11:37:03.117Z,6.30
2018-12-31T11:39:31.553Z,5.20
2018-12-31T11:41:59.974Z,6.30
2018-12-31T11:44:28.654Z,5.25
2018-12-31T11:46:57.348Z,5.80
2018-12-31T11:49:25.834Z,6.83
2018-12-31T11:51:54.527Z,6.25
2018-12-31T11:54:22.930Z,6.33
2018-12-31T11:56:51.357Z,5.60
2018-12-31T11:59:19.806Z,5.65
2018-12-31T12:01:48.505Z,5.72
2018-12-31T12:04:17.198Z,6.15
2018-12-31T12:06:45.898Z,5.53
2018-12-31T12:09:14.373Z,5.03
2018-12-31T12:11:42.860Z,5.72
2018-12-31T12:14:11.537Z,5.12
2018-12-31T12:16:40.206Z,4.45
2018-12-31T12:19:08.913Z,4.92
2018-12-31T12:21:37.324Z,4.33
2018-12-31T12:24:05.753Z,5.08
2018-12-31T12:26:34.166Z,5.05
2018-12-31T12:29:02.592Z,4.80
2018-12-31T12:31:31.289Z,4.70
2018-12-31T12:33:59.721Z,5.25
2018-12-31T12:36:28.383Z,5.37
2018-12-31T12:38:56.813Z,5.00
2018-12-31T12:41:25.483Z,4.28
2018-12-31T12:43:54.081Z,5.12
2018-12-31T12:46:22.569Z,4.62
2018-12-31T12:48:51.271Z,4.25
2018-12-31T12:51:21.402Z,4.03
2018-12-31T12:53:50.086Z,3.80
2018-12-31T12:56:18.874Z,5.20
2018-12-31T12:58:47.306Z,4.90
2018-12-31T13:01:15.974Z,4.00
2018-12-31T13:03:44.572Z,4.40
2018-12-31T13:06:12.989Z,4.03
2018-12-31T13:08:41.670Z,4.35
2018-12-31T13:11:10.101Z,4.40
2018-12-31T13:13:38.509Z,4.45
2018-12-31T13:16:07.193Z,4.12
2018-12-31T13:18:35.869Z,3.85
2018-12-31T13:21:04.304Z,5.15
2018-12-31T13:23:32.714Z,5.50
2018-12-31T13:26:01.398Z,4.75
2018-12-31T13:28:30.099Z,5.85
2018-12-31T13:30:58.516Z,4.15
2018-12-31T13:33:26.945Z,4.03
2018-12-31T13:35:55.605Z,5.47
2018-12-31T13:38:24.037Z,4.65
2018-12-31T13:40:52.693Z,6.35
2018-12-31T13:43:21.380Z,5.50
2018-12-31T13:45:49.786Z,6.85
2018-12-31T13:48:18.494Z,5.40
2018-12-31T13:50:47.162Z,4.95
2018-12-31T13:53:15.597Z,8.30
2018-12-31T13:55:44.014Z,6.20
2018-12-31T13:58:12.472Z,4.70
2018-12-31T14:00:41.493Z,6.42
2018-12-31T14:03:16.921Z,5.53
2018-12-31T14:05:43.590Z,5.90
2018-12-31T14:08:12.194Z,5.45
2018-12-31T14:10:40.673Z,4.47
2018-12-31T14:13:09.354Z,5.70
2018-12-31T14:15:38.020Z,5.60
2018-12-31T14:18:06.453Z,4.55
2018-12-31T14:20:35.114Z,5.05
2018-12-31T14:23:03.768Z,4.95
2018-12-31T14:25:32.282Z,4.33
2018-12-31T14:28:00.718Z,5.15
2018-12-31T14:30:29.402Z,5.28
2018-12-31T14:32:57.838Z,5.35
2018-12-31T14:35:26.290Z,5.62
2018-12-31T14:37:54.966Z,5.70
2018-12-31T14:40:23.666Z,5.42
2018-12-31T14:42:52.105Z,6.95
2018-12-31T14:45:23.014Z,7.20
2018-12-31T14:47:51.001Z,5.90
2018-12-31T14:50:19.453Z,6.83
2018-12-31T14:52:48.134Z,6.45
2018-12-31T14:55:16.819Z,6.20
2018-12-31T14:57:45.483Z,6.70
2018-12-31T15:00:14.325Z,5.83
2018-12-31T15:02:43.273Z,6.78
2018-12-31T15:05:11.958Z,7.22
2018-12-31T15:07:41.109Z,6.58
2018-12-31T15:10:09.781Z,7.10
2018-12-31T15:12:38.213Z,6.72
2018-12-31T15:15:07.845Z,7.10
2018-12-31T15:17:36.333Z,8.43
2018-12-31T15:20:07.874Z,7.00
2018-12-31T15:22:36.295Z,7.30
2018-12-31T15:25:05.442Z,8.10
2018-12-31T15:27:34.053Z,7.62
2018-12-31T15:30:02.809Z,8.18
2018-12-31T15:32:31.242Z,7.12
2018-12-31T15:34:59.653Z,8.00
2018-12-31T15:37:28.085Z,7.42
2018-12-31T15:39:56.941Z,7.47
2018-12-31T15:42:25.624Z,6.62
2018-12-31T15:44:54.042Z,7.08
2018-12-31T15:47:22.839Z,6.87
2018-12-31T15:49:51.252Z,6.15
2018-12-31T15:52:20.067Z,7.05
2018-12-31T15:54:48.734Z,5.72
2018-12-31T15:57:17.169Z,6.97
2018-12-31T15:59:45.585Z,6.25
2018-12-31T16:02:14.025Z,11.45
2018-12-31T16:04:42.449Z,10.48
2018-12-31T16:07:10.963Z,8.38
2018-12-31T16:09:39.453Z,9.90
2018-12-31T16:12:07.918Z,8.38
2018-12-31T16:14:36.397Z,8.55
2018-12-31T16:17:04.873Z,8.78
2018-12-31T16:19:33.565Z,8.00
2018-12-31T16:22:02.027Z,10.90
2018-12-31T16:24:30.529Z,10.40
2018-12-31T16:26:58.965Z,10.93
2018-12-31T16:29:27.404Z,12.07
2018-12-31T16:31:56.206Z,63.55
2018-12-31T16:34:24.689Z,15.55
2018-12-31T16:36:53.227Z,11.93
2018-12-31T16:39:21.665Z,12.10
2018-12-31T16:41:50.084Z,10.70
2018-12-31T16:44:18.551Z,10.93
2018-12-31T16:46:47.033Z,9.75
2018-12-31T16:49:15.543Z,12.60
2018-12-31T16:51:44.032Z,11.93
2018-12-31T16:54:12.798Z,46.42
2018-12-31T16:56:41.489Z,14.78
2018-12-31T16:59:10.186Z,14.28
2018-12-31T17:01:38.605Z,14.85
2018-12-31T17:04:07.321Z,13.62
2018-12-31T17:06:35.732Z,12.73
2018-12-31T17:09:06.525Z,14.30
2018-12-31T17:11:35.144Z,14.95
2018-12-31T17:14:03.979Z,16.30
2018-12-31T17:16:32.806Z,15.93
2018-12-31T17:19:01.228Z,17.00
2018-12-31T17:21:29.922Z,15.15
2018-12-31T17:23:58.990Z,14.73
2018-12-31T17:26:27.754Z,14.87
2018-12-31T17:28:56.169Z,14.20
2018-12-31T17:31:24.853Z,13.45
2018-12-31T17:33:53.526Z,13.65
2018-12-31T17:36:22.245Z,15.18
2018-12-31T17:38:50.671Z,14.25
2018-12-31T17:41:19.109Z,12.07
2018-12-31T17:43:47.533Z,12.60
2018-12-31T17:46:16.217Z,14.65
2018-12-31T17:48:44.915Z,13.68
2018-12-31T17:51:15.288Z,13.85
2018-12-31T17:53:43.560Z,13.98
2018-12-31T17:56:12.250Z,15.25
2018-12-31T17:58:40.695Z,17.70
2018-12-31T18:01:09.113Z,17.23
2018-12-31T18:03:37.856Z,13.72
2018-12-31T18:06:06.750Z,14.05
2018-12-31T18:08:35.213Z,44.98
2018-12-31T18:11:03.965Z,16.50
2018-12-31T18:13:32.417Z,16.97
2018-12-31T18:16:01.227Z,14.90
2018-12-31T18:18:29.660Z,13.72
2018-12-31T18:20:58.356Z,13.58
2018-12-31T18:23:27.102Z,15.98
2018-12-31T18:25:55.581Z,13.48
2018-12-31T18:28:24.382Z,14.07
2018-12-31T18:30:53.355Z,14.23
2018-12-31T18:33:22.072Z,12.85
2018-12-31T18:35:50.582Z,24.85
2018-12-31T18:38:21.943Z,12.88
2018-12-31T18:40:50.776Z,12.85
2018-12-31T18:43:19.457Z,20.12
2018-12-31T18:45:48.142Z,26.85
2018-12-31T18:48:16.891Z,18.75
2018-12-31T18:50:45.313Z,12.53
2018-12-31T18:53:13.745Z,12.95
2018-12-31T18:55:42.192Z,11.20
2018-12-31T18:58:10.863Z,12.55
2018-12-31T19:00:39.440Z,14.98
2018-12-31T19:03:07.870Z,14.03
2018-12-31T19:05:36.637Z,14.90
2018-12-31T19:08:05.077Z,15.23
2018-12-31T19:10:33.501Z,16.70
2018-12-31T19:13:02.187Z,15.05
2018-12-31T19:15:30.609Z,16.05
2018-12-31T19:17:59.306Z,14.98
2018-12-31T19:20:28.281Z,45.65
2018-12-31T19:22:56.702Z,20.68
2018-12-31T19:25:25.486Z,49.13
2018-12-31T19:27:54.065Z,15.75
2018-12-31T19:30:22.506Z,14.98
2018-12-31T19:32:50.945Z,13.80
2018-12-31T19:35:19.377Z,14.63
2018-12-31T19:37:48.066Z,12.98
2018-12-31T19:40:16.486Z,12.80
2018-12-31T19:42:44.927Z,13.80
2018-12-31T19:45:13.370Z,13.20
2018-12-31T19:47:41.796Z,12.85
2018-12-31T19:50:10.306Z,13.35
2018-12-31T19:52:38.729Z,33.02
2018-12-31T19:55:07.311Z,15.00
2018-12-31T19:57:35.752Z,12.90
2018-12-31T20:00:06.558Z,15.15
2018-12-31T20:02:35.078Z,14.33
2018-12-31T20:05:03.914Z,12.95
2018-12-31T20:07:32.412Z,15.75
2018-12-31T20:10:00.865Z,15.28
2018-12-31T20:12:29.902Z,14.78
2018-12-31T20:14:58.589Z,17.75
2018-12-31T20:17:27.018Z,16.27
2018-12-31T20:19:55.458Z,13.80
2018-12-31T20:22:24.133Z,14.58
2018-12-31T20:24:52.818Z,14.20
2018-12-31T20:27:21.508Z,145.05
2018-12-31T20:29:50.182Z,70.75
2018-12-31T20:32:18.894Z,59.23
2018-12-31T20:34:47.350Z,17.82
2018-12-31T20:37:16.054Z,15.63
2018-12-31T20:39:44.493Z,14.98
2018-12-31T20:42:13.250Z,17.02
2018-12-31T20:44:41.694Z,16.42
2018-12-31T20:47:10.189Z,15.32
2018-12-31T20:49:38.954Z,14.45
2018-12-31T20:52:07.369Z,20.48
2018-12-31T20:54:36.186Z,14.43
2018-12-31T20:57:04.702Z,21.60
2018-12-31T20:59:33.125Z,15.85
2018-12-31T21:02:01.822Z,17.00
2018-12-31T21:04:30.246Z,14.10
2018-12-31T21:06:58.686Z,66.33
2018-12-31T21:09:28.789Z,19.92
2018-12-31T21:11:57.426Z,17.17
2018-12-31T21:14:25.924Z,43.15
2018-12-31T21:16:54.402Z,30.08
2018-12-31T21:19:22.836Z,50.63
2018-12-31T21:21:51.681Z,26.90
2018-12-31T21:24:20.117Z,39.75
2018-12-31T21:26:48.533Z,17.92
2018-12-31T21:29:16.969Z,16.80
2018-12-31T21:31:45.638Z,15.38
2018-12-31T21:34:14.079Z,17.50
2018-12-31T21:36:42.765Z,380.35
2018-12-31T21:39:11.455Z,98.10
2018-12-31T21:41:40.126Z,18.45
2018-12-31T21:44:08.814Z,17.95
2018-12-31T21:46:37.481Z,21.62
2018-12-31T21:49:06.174Z,20.57
2018-12-31T21:51:34.837Z,15.93
2018-12-31T21:54:03.278Z,16.00
2018-12-31T21:56:31.953Z,15.10
2018-12-31T21:59:00.389Z,15.30
2018-12-31T22:01:29.438Z,14.98
2018-12-31T22:03:57.872Z,14.15
2018-12-31T22:06:26.371Z,14.25
2018-12-31T22:08:54.806Z,18.75
2018-12-31T22:11:23.301Z,20.60
2018-12-31T22:13:51.987Z,15.95
2018-12-31T22:16:20.424Z,162.32
2018-12-31T22:18:48.938Z,24.98
2018-12-31T22:21:17.357Z,14.05
2018-12-31T22:23:45.798Z,16.48
2018-12-31T22:26:14.223Z,17.50
2018-12-31T22:28:43.033Z,14.68
2018-12-31T22:31:11.709Z,14.38
2018-12-31T22:33:40.914Z,14.00
2018-12-31T22:36:09.338Z,30.40
2018-12-31T22:38:38.037Z,20.95
2018-12-31T22:41:06.457Z,18.67
2018-12-31T22:43:34.897Z,13.45
2018-12-31T22:46:03.704Z,15.60
2018-12-31T22:48:32.161Z,15.60
2018-12-31T22:51:00.902Z,18.95
2018-12-31T22:53:29.328Z,16.52
2018-12-31T22:55:58.001Z,32.80
2018-12-31T22:58:27.642Z,29.07
2018-12-31T23:00:56.101Z,89.50
2018-12-31T23:03:24.792Z,65.22
2018-12-31T23:05:53.553Z,165.82
2018-12-31T23:08:21.985Z,217.22
2018-12-31T23:10:50.437Z,254.45
2018-12-31T23:13:19.114Z,208.95
2018-12-31T23:15:47.612Z,232.18
2018-12-31T23:18:16.148Z,380.95
2018-12-31T23:20:44.889Z,335.40
2018-12-31T23:23:13.318Z,274.02
2018-12-31T23:25:41.770Z,237.80
2018-12-31T23:28:10.193Z,138.68
2018-12-31T23:30:38.882Z,74.27
2018-12-31T23:33:07.301Z,46.77
2018-12-31T23:35:35.991Z,50.75
2018-12-31T23:38:04.410Z,50.55
2018-12-31T23:40:33.126Z,43.05
2018-12-31T23:43:06.396Z,45.90
2018-12-31T23:45:31.993Z,44.38
2018-12-31T23:48:01.365Z,57.33
2018-12-31T23:50:29.806Z,60.55
2018-12-31T23:52:58.231Z,47.90
2018-12-31T23:55:26.665Z,53.60
2018-12-31T23:57:55.414Z,51.50
